Time;durP1;ratioP1;P1;durP2;ratioP2;P2;SDS_P1;SDS_P2;PMS_P1;PMS_P2;Temp;Humidity;BMP_temperature;BMP_pressure;BME280_temperature;BME280_humidity;BME280_pressure;Samples;Min_cycle;Max_cycle;Signal;HPM_P1;HPM_P2
2022/01/30 00:00:34;;;;;;;30.25;6.28;;;;;;;6.24;100.00;102684.88;5093329;28;20060;-50
2022/01/30 00:02:59;;;;;;;26.52;4.90;;;;;;;6.25;100.00;102714.53;5093103;28;20034;-51
2022/01/30 00:05:27;;;;;;;28.60;6.70;;;;;;;5.68;100.00;102608.19;5091842;28;20410;-52
2022/01/30 00:07:53;;;;;;;34.83;6.65;;;;;;;6.10;100.00;102695.09;5075440;28;20048;-52
2022/01/30 00:10:19;;;;;;;22.60;5.78;;;;;;;6.18;100.00;102713.53;5093409;28;20097;-50
2022/01/30 00:12:57;;;;;;;30.25;6.20;;;;;;;5.76;100.00;102650.09;5093324;28;20424;-51
2022/01/30 00:15:35;;;;;;;28.10;6.00;;;;;;;6.03;100.00;102706.34;5093254;28;20059;-53
2022/01/30 00:18:21;;;;;;;30.63;5.82;;;;;;;6.02;100.00;102704.56;5093049;28;20090;-54
2022/01/30 00:20:59;;;;;;;33.05;6.22;;;;;;;5.99;100.00;102706.25;5092924;28;20566;-51
2022/01/30 00:23:26;;;;;;;32.75;6.70;;;;;;;5.53;100.00;102642.78;5093484;28;20028;-53
2022/01/30 00:25:55;;;;;;;26.83;5.40;;;;;;;5.88;100.00;102713.03;5091429;28;20043;-53
2022/01/30 00:28:23;;;;;;;42.17;6.55;;;;;;;5.47;100.00;102640.06;5091835;28;20031;-51
2022/01/30 00:30:49;;;;;;;30.45;7.05;;;;;;;5.48;100.00;102641.81;5093000;28;20036;-53
2022/01/30 00:33:15;;;;;;;34.78;6.38;;;;;;;5.42;100.00;102633.00;5093145;28;20028;-49
2022/01/30 00:35:40;;;;;;;27.05;5.53;;;;;;;5.87;100.00;102712.16;5091451;28;20145;-52
2022/01/30 00:38:11;;;;;;;26.30;5.38;;;;;;;5.40;100.00;102637.31;5092803;28;20032;-54
2022/01/30 00:40:36;;;;;;;38.25;6.10;;;;;;;5.88;100.00;102716.53;5091184;28;20048;-54
2022/01/30 00:43:02;;;;;;;29.85;5.85;;;;;;;5.49;100.00;102672.28;5092206;28;20056;-51
2022/01/30 00:45:28;;;;;;;26.48;5.10;;;;;;;5.80;100.00;102725.09;5091524;28;20032;-51
2022/01/30 00:47:53;;;;;;;23.27;4.90;;;;;;;5.60;100.00;102699.47;5091502;28;20699;-52
2022/01/30 00:50:18;;;;;;;27.38;5.43;;;;;;;5.70;100.00;102729.25;5092524;28;20060;-51
2022/01/30 00:52:49;;;;;;;28.88;6.65;;;;;;;5.65;100.00;102737.03;5092561;28;20082;-50
2022/01/30 00:55:14;;;;;;;31.20;6.97;;;;;;;5.65;100.00;102737.03;5092319;28;20402;-51
2022/01/30 00:57:40;;;;;;;28.98;5.93;;;;;;;5.30;100.00;102656.28;5092219;28;20047;-48
2022/01/30 01:00:06;;;;;;;29.95;5.47;;;;;;;5.74;100.00;102720.63;5092339;28;20064;-50
2022/01/30 01:02:32;;;;;;;24.08;5.50;;;;;;;5.81;100.00;102722.47;5092117;28;20528;-53
2022/01/30 01:05:03;;;;;;;28.73;5.28;;;;;;;5.78;100.00;102729.41;5092199;28;20119;-52
2022/01/30 01:07:29;;;;;;;26.05;5.03;;;;;;;5.29;100.00;102644.94;5092148;28;20103;-53
2022/01/30 01:10:05;;;;;;;32.42;6.43;;;;;;;5.33;100.00;102652.00;5091835;28;20160;-51
2022/01/30 01:12:56;;;;;;;32.90;5.57;;;;;;;5.71;100.00;102730.16;5091780;28;20036;-53
2022/01/30 01:23:44;;;;;;;33.33;6.32;;;;;;;5.73;100.00;102742.38;5092351;28;20178;-51
2022/01/30 01:26:10;;;;;;;26.25;5.80;;;;;;;5.74;100.00;102751.09;5092185;28;20416;-51
2022/01/30 01:28:35;;;;;;;28.17;5.47;;;;;;;5.73;100.00;102744.09;5091765;28;20119;-51
2022/01/30 01:31:02;;;;;;;25.10;5.45;;;;;;;5.74;100.00;102762.44;5092275;28;20495;-51
2022/01/30 01:33:36;;;;;;;27.58;5.80;;;;;;;5.80;100.00;102756.44;5092117;28;20115;-50
2022/01/30 01:36:02;;;;;;;24.58;5.53;;;;;;;5.46;100.00;102685.28;5092070;28;20115;-51
2022/01/30 01:38:27;;;;;;;24.27;4.70;;;;;;;5.76;100.00;102750.28;5090962;28;20457;-51
2022/01/30 01:40:55;;;;;;;28.17;4.85;;;;;;;5.38;100.00;102686.91;5090530;28;20028;-49
2022/01/30 01:43:22;;;;;;;26.05;5.20;;;;;;;5.41;100.00;102683.47;5092193;28;20387;-51
2022/01/30 01:45:51;;;;;;;26.65;5.40;;;;;;;5.71;100.00;102737.97;5073921;28;20417;-49
2022/01/30 01:48:17;;;;;;;23.20;6.07;;;;;;;5.76;100.00;102765.94;5090928;28;20047;-53
2022/01/30 01:50:50;;;;;;;25.05;3.90;;;;;;;5.38;100.00;102699.06;5091778;28;20032;-50
2022/01/30 01:53:16;;;;;;;20.92;5.97;;;;;;;5.26;100.00;102678.84;5092405;28;20035;-52
2022/01/30 01:55:43;;;;;;;23.67;4.80;;;;;;;5.73;100.00;102771.13;5091643;28;20040;-51
2022/01/30 01:58:09;;;;;;;28.88;5.50;;;;;;;5.80;100.00;102775.63;5091934;28;20040;-50
2022/01/30 02:00:36;;;;;;;24.88;4.78;;;;;;;5.83;100.00;102777.41;5090510;28;20109;-53
2022/01/30 02:03:02;;;;;;;26.63;4.43;;;;;;;5.90;100.00;102761.00;5073815;28;20047;-53
2022/01/30 02:05:29;;;;;;;27.45;5.10;;;;;;;5.98;100.00;102772.47;5091789;28;20043;-51
2022/01/30 02:10:46;;;;;;;23.95;4.90;;;;;;;5.80;100.00;102702.44;5092066;28;20127;-53
2022/01/30 02:14:13;;;;;;;23.23;4.95;;;;;;;6.32;100.00;102784.34;5091594;28;20048;-51
2022/01/30 02:25:07;;;;;;;23.42;4.68;;;;;;;5.74;100.00;102757.22;5093835;28;20497;-51
2022/01/30 02:27:35;;;;;;;25.65;5.20;;;;;;;5.74;100.00;102777.22;5095294;28;20031;-54
2022/01/30 02:30:17;;;;;;;20.60;4.57;;;;;;;5.35;100.00;102723.41;5094851;28;20043;-52
2022/01/30 02:32:43;;;;;;;18.77;3.88;;;;;;;5.22;100.00;102717.91;5095254;28;20032;-51
2022/01/30 02:35:08;;;;;;;26.98;4.60;;;;;;;5.59;100.00;102777.81;5094822;28;20395;-52
2022/01/30 02:37:34;;;;;;;21.25;4.78;;;;;;;5.61;100.00;102771.78;5095369;28;20028;-53
2022/01/30 02:40:00;;;;;;;21.15;4.95;;;;;;;5.49;100.00;102750.66;5095005;28;20493;-52
2022/01/30 02:42:30;;;;;;;24.05;4.43;;;;;;;5.07;100.00;102679.34;5094753;28;20119;-52
2022/01/30 02:44:59;;;;;;;21.35;4.75;;;;;;;5.04;100.00;102677.56;5094910;28;20540;-51
2022/01/30 02:47:39;;;;;;;24.88;5.35;;;;;;;5.05;100.00;102684.53;5094633;28;20028;-53
2022/01/30 02:50:11;;;;;;;22.45;4.32;;;;;;;4.99;100.00;102691.38;5095035;28;20035;-48
2022/01/30 02:52:40;;;;;;;19.38;4.28;;;;;;;5.36;100.00;102755.63;5094763;28;20451;-54
2022/01/30 02:55:07;;;;;;;17.02;4.60;;;;;;;4.96;100.00;102679.13;5093646;28;20135;-48
2022/01/30 02:57:32;;;;;;;19.73;4.43;;;;;;;5.47;100.00;102770.63;5093376;28;20475;-53
2022/01/30 02:59:58;;;;;;;29.42;4.00;;;;;;;5.59;100.00;102763.03;5093111;28;20047;-52
2022/01/30 03:02:23;;;;;;;22.15;4.38;;;;;;;5.63;100.00;102748.31;5094814;28;20562;-54
2022/01/30 03:04:48;;;;;;;17.73;4.05;;;;;;;5.85;100.00;102767.84;5076288;28;20031;-50
2022/01/30 03:07:14;;;;;;;24.45;4.20;;;;;;;5.90;100.00;102776.66;5093194;28;20115;-54
2022/01/30 03:09:39;;;;;;;19.13;4.20;;;;;;;5.90;100.00;102772.31;5094270;28;20044;-50
2022/01/30 03:12:05;;;;;;;20.33;4.43;;;;;;;5.84;100.00;102774.78;5094460;28;20032;-54
2022/01/30 03:14:31;;;;;;;19.40;5.15;;;;;;;5.74;100.00;102764.16;5094650;28;20032;-50
2022/01/30 03:16:56;;;;;;;23.40;3.80;;;;;;;5.76;100.00;102775.50;5093303;28;20035;-51
2022/01/30 03:19:22;;;;;;;22.27;4.57;;;;;;;5.50;100.00;102746.31;5094039;28;20073;-52
2022/01/30 03:21:47;;;;;;;21.85;4.50;;;;;;;5.71;100.00;102785.00;5094252;28;20036;-49
2022/01/30 03:24:13;;;;;;;26.45;4.95;;;;;;;5.66;100.00;102788.41;5092845;28;20032;-51
2022/01/30 03:26:40;;;;;;;24.85;4.65;;;;;;;5.63;100.00;102792.72;5093996;28;20047;-51
2022/01/30 03:29:07;;;;;;;29.77;5.18;;;;;;;5.24;100.00;102731.88;5094153;28;20020;-50
2022/01/30 03:31:40;;;;;;;17.90;3.92;;;;;;;5.37;100.00;102760.00;5093998;28;20036;-49
2022/01/30 03:34:07;;;;;;;16.33;3.70;;;;;;;5.42;100.00;102732.22;5075985;28;20028;-52
2022/01/30 03:36:33;;;;;;;20.50;4.05;;;;;;;5.95;100.00;102811.63;5093574;28;20050;-51
2022/01/30 03:38:59;;;;;;;17.20;3.00;;;;;;;5.95;100.00;102809.03;5092678;28;20494;-51
2022/01/30 03:41:27;;;;;;;17.38;3.10;;;;;;;5.88;100.00;102804.53;5092527;28;20070;-56
2022/01/30 03:43:53;;;;;;;13.13;3.20;;;;;;;6.04;100.00;102836.19;5092322;28;20467;-51
2022/01/30 03:46:19;;;;;;;14.90;3.05;;;;;;;6.02;100.00;102835.28;5093445;28;20106;-51
2022/01/30 03:48:45;;;;;;;13.13;3.17;;;;;;;5.94;100.00;102833.38;5092613;28;20477;-50
2022/01/30 03:51:10;;;;;;;15.98;3.00;;;;;;;5.44;100.00;102762.75;5093578;28;20512;-50
2022/01/30 03:53:36;;;;;;;19.65;3.50;;;;;;;5.27;100.00;102753.72;5093497;28;20040;-51
2022/01/30 03:56:02;;;;;;;15.98;3.50;;;;;;;5.62;100.00;102828.41;5093139;28;20059;-53
2022/01/30 03:58:28;;;;;;;17.65;3.22;;;;;;;5.67;100.00;102823.25;5093113;28;20137;-49
2022/01/30 04:00:53;;;;;;;18.17;4.03;;;;;;;5.75;100.00;102834.72;5093415;28;20499;-53
2022/01/30 04:03:18;;;;;;;17.17;3.33;;;;;;;5.83;100.00;102825.31;5093339;28;20051;-51
2022/01/30 04:05:44;;;;;;;16.70;3.88;;;;;;;5.96;100.00;102835.16;5093522;28;20038;-50
2022/01/30 04:08:09;;;;;;;14.93;3.55;;;;;;;6.02;100.00;102832.66;5093607;28;20050;-51
2022/01/30 04:10:36;;;;;;;12.88;3.13;;;;;;;6.04;100.00;102828.34;5093155;28;20386;-49
2022/01/30 04:13:01;;;;;;;12.00;2.70;;;;;;;6.02;100.00;102821.31;5093046;28;20062;-51
2022/01/30 04:15:27;;;;;;;16.20;3.28;;;;;;;5.91;100.00;102812.41;5091909;28;20032;-50
2022/01/30 04:17:52;;;;;;;19.33;2.88;;;;;;;5.87;100.00;102806.25;5093291;28;20038;-50
2022/01/30 04:20:18;;;;;;;22.35;3.53;;;;;;;5.55;100.00;102749.88;5091886;28;20038;-52
2022/01/30 04:22:43;;;;;;;20.58;3.22;;;;;;;5.95;100.00;102819.47;5092987;28;20040;-50
2022/01/30 04:25:09;;;;;;;21.77;4.07;;;;;;;5.90;100.00;102821.09;5093066;28;20075;-52
2022/01/30 04:27:34;;;;;;;20.88;4.13;;;;;;;5.79;100.00;102818.28;5092269;28;20051;-49
2022/01/30 04:30:00;;;;;;;20.13;4.47;;;;;;;5.64;100.00;102816.25;5092864;28;20036;-50
2022/01/30 04:32:26;;;;;;;19.52;3.22;;;;;;;5.18;100.00;102744.81;5091611;28;20034;-53
2022/01/30 04:34:57;;;;;;;21.02;4.10;;;;;;;5.57;100.00;102826.56;5092807;28;20068;-53
2022/01/30 04:37:31;;;;;;;17.02;3.28;;;;;;;5.48;100.00;102829.88;5093009;28;20071;-52
2022/01/30 04:53:53;;;;;;;25.27;3.65;;;;;;;5.05;100.00;102772.38;5092621;28;20090;-55
2022/01/30 04:59:07;;;;;;;21.30;3.80;;;;;;;5.39;100.00;102853.19;5092250;28;20050;-50
2022/01/30 05:01:52;;;;;;;24.88;4.00;;;;;;;5.29;100.00;102845.13;5088388;28;20099;-51
2022/01/30 05:04:41;;;;;;;23.40;4.70;;;;;;;5.31;100.00;102853.88;5091536;28;20055;-52
2022/01/30 05:09:33;;;;;;;17.55;3.53;;;;;;;5.36;100.00;102862.69;5091866;28;20507;-53
2022/01/30 05:11:58;;;;;;;21.52;3.75;;;;;;;5.03;100.00;102816.72;5092376;28;20110;-53
2022/01/30 05:14:27;;;;;;;20.70;4.05;;;;;;;4.89;100.00;102792.06;5092354;28;20036;-53
2022/01/30 05:16:53;;;;;;;18.50;4.57;;;;;;;5.20;100.00;102879.75;5092288;28;20039;-51
2022/01/30 05:19:19;;;;;;;19.58;4.07;;;;;;;5.02;100.00;102848.03;5092357;28;20036;-50
2022/01/30 05:21:44;;;;;;;21.35;4.85;;;;;;;5.17;100.00;102874.44;5073795;28;20050;-52
2022/01/30 05:24:10;;;;;;;19.33;4.47;;;;;;;5.17;100.00;102866.63;5074333;28;20035;-51
2022/01/30 05:26:41;;;;;;;16.05;3.83;;;;;;;5.07;100.00;102852.50;5091827;28;20063;-51
2022/01/30 05:29:07;;;;;;;19.42;3.97;;;;;;;4.78;100.00;102795.28;5090954;28;20038;-51
2022/01/30 05:31:33;;;;;;;19.77;3.28;;;;;;;5.23;100.00;102884.16;5092089;28;20032;-52
2022/01/30 05:33:58;;;;;;;24.65;4.28;;;;;;;4.90;100.00;102846.00;5090662;28;20028;-55
2022/01/30 05:36:24;;;;;;;23.83;3.95;;;;;;;5.16;100.00;102901.44;5092031;28;20119;-48
2022/01/30 05:38:50;;;;;;;20.05;4.25;;;;;;;5.08;100.00;102906.44;5091827;28;20028;-50
2022/01/30 05:41:17;;;;;;;17.98;4.03;;;;;;;5.14;100.00;102908.31;5092430;28;20032;-50
2022/01/30 05:43:43;;;;;;;19.45;4.30;;;;;;;4.83;100.00;102851.06;5091674;28;20040;-50
2022/01/30 05:46:14;;;;;;;16.63;4.30;;;;;;;4.91;100.00;102871.25;5092070;28;20024;-51
2022/01/30 05:48:39;;;;;;;22.85;4.20;;;;;;;5.18;100.00;102920.59;5091894;28;20035;-53
2022/01/30 05:51:05;;;;;;;17.40;3.92;;;;;;;4.73;100.00;102854.31;5092051;28;20028;-52
2022/01/30 05:53:31;;;;;;;24.85;4.40;;;;;;;4.90;100.00;102856.44;5092161;28;20123;-50
2022/01/30 05:55:56;;;;;;;27.85;5.60;;;;;;;4.85;100.00;102845.03;5090579;28;20051;-52
2022/01/30 05:58:22;;;;;;;25.85;4.82;;;;;;;5.41;100.00;102935.06;5092174;28;20036;-52
2022/01/30 06:00:47;;;;;;;30.33;4.57;;;;;;;5.39;100.00;102941.09;5095758;28;20036;-50
2022/01/30 06:03:12;;;;;;;15.43;3.83;;;;;;;5.37;100.00;102942.81;5095882;28;20089;-52
2022/01/30 06:05:39;;;;;;;23.55;4.72;;;;;;;5.31;100.00;102946.13;5094126;28;20059;-51
2022/01/30 06:08:14;;;;;;;26.20;5.65;;;;;;;5.31;100.00;102942.66;5095910;28;20056;-51
2022/01/30 06:10:39;;;;;;;20.48;4.18;;;;;;;5.21;100.00;102940.69;5095449;28;20387;-49
2022/01/30 06:13:05;;;;;;;26.58;4.97;;;;;;;5.21;100.00;102953.72;5095610;28;20034;-50
2022/01/30 06:15:30;;;;;;;28.52;5.32;;;;;;;4.88;100.00;102889.47;5094222;28;20031;-51
2022/01/30 06:17:55;;;;;;;24.30;4.47;;;;;;;5.01;100.00;102929.78;5110702;28;20024;-51
2022/01/30 06:20:21;;;;;;;20.30;5.15;;;;;;;4.76;100.00;102898.75;5094096;28;20057;-49
2022/01/30 06:22:46;;;;;;;23.85;5.07;;;;;;;5.09;100.00;102952.59;5095185;28;20031;-50
2022/01/30 06:25:12;;;;;;;32.38;5.00;;;;;;;4.89;100.00;102929.47;5095139;28;20086;-52
2022/01/30 06:27:37;;;;;;;24.98;4.90;;;;;;;4.60;100.00;102886.16;5093680;28;20040;-47
2022/01/30 06:30:04;;;;;;;31.02;5.13;;;;;;;4.94;100.00;102961.78;5076583;28;20480;-50
2022/01/30 06:32:30;;;;;;;31.65;5.22;;;;;;;4.44;100.00;102882.28;5094733;28;20032;-50
2022/01/30 06:34:55;;;;;;;27.85;5.55;;;;;;;4.80;100.00;102968.41;5094888;28;20061;-50
2022/01/30 06:37:21;;;;;;;24.10;4.93;;;;;;;4.21;100.00;102876.47;5093724;28;20032;-53
2022/01/30 06:39:46;;;;;;;27.02;5.47;;;;;;;4.39;100.00;102902.16;5093794;28;20028;-51
2022/01/30 06:42:11;;;;;;;28.67;4.95;;;;;;;4.29;100.00;102908.84;5094988;28;20038;-50
2022/01/30 06:44:37;;;;;;;25.00;5.18;;;;;;;4.69;100.00;102977.69;5094832;28;20040;-52
2022/01/30 06:47:04;;;;;;;25.90;4.47;;;;;;;4.29;100.00;102913.19;5094655;28;20032;-54
2022/01/30 06:49:29;;;;;;;25.77;4.72;;;;;;;4.63;100.00;102973.19;5076538;28;20043;-51
2022/01/30 06:51:55;;;;;;;22.27;4.10;;;;;;;4.54;100.00;102959.91;5094865;28;20032;-52
2022/01/30 06:54:20;;;;;;;22.48;5.20;;;;;;;4.63;100.00;102970.59;5093335;28;20402;-52
2022/01/30 06:56:45;;;;;;;32.65;5.32;;;;;;;4.59;100.00;102973.06;5094817;28;20044;-53
2022/01/30 06:59:11;;;;;;;29.60;5.15;;;;;;;4.51;100.00;102952.00;5094576;28;20040;-50
2022/01/30 07:01:36;;;;;;;20.35;4.68;;;;;;;4.04;100.00;102872.56;5094365;28;20063;-53
2022/01/30 07:04:01;;;;;;;26.02;5.45;;;;;;;4.49;100.00;102961.53;5093319;28;20479;-52
2022/01/30 07:06:27;;;;;;;31.40;5.38;;;;;;;4.44;100.00;102966.59;5094443;28;20502;-52
2022/01/30 07:08:52;;;;;;;24.80;5.40;;;;;;;4.39;100.00;102970.81;5094386;28;20048;-50
2022/01/30 07:11:17;;;;;;;33.67;6.05;;;;;;;4.39;100.00;102983.88;5093590;28;20436;-51
2022/01/30 07:13:43;;;;;;;26.92;5.38;;;;;;;4.36;100.00;102998.53;5094384;28;20061;-51
2022/01/30 07:16:08;;;;;;;22.58;4.63;;;;;;;4.26;100.00;102989.56;5094250;28;20109;-52
2022/01/30 07:18:34;;;;;;;25.67;5.60;;;;;;;3.84;100.00;102921.53;5094189;28;20036;-51
2022/01/30 07:20:59;;;;;;;25.55;5.00;;;;;;;4.13;100.00;102978.78;5093052;28;20036;-53
2022/01/30 07:23:25;;;;;;;22.88;4.88;;;;;;;3.82;100.00;102937.97;5094520;28;20032;-50
2022/01/30 07:25:50;;;;;;;27.65;4.97;;;;;;;4.23;100.00;103002.53;5094230;28;20093;-53
2022/01/30 07:28:16;;;;;;;28.85;5.22;;;;;;;3.85;100.00;102933.69;5093991;28;20024;-53
2022/01/30 07:30:41;;;;;;;29.50;6.00;;;;;;;4.40;100.00;103010.81;5094064;28;20036;-53
2022/01/30 07:33:07;;;;;;;25.25;5.32;;;;;;;4.33;100.00;102996.72;5093796;28;20490;-49
2022/01/30 07:35:34;;;;;;;22.15;4.63;;;;;;;4.58;100.00;103018.25;5094190;28;20489;-50
2022/01/30 07:38:00;;;;;;;23.17;4.75;;;;;;;4.63;100.00;103012.31;5094201;28;20034;-49
2022/01/30 07:40:25;;;;;;;23.05;5.05;;;;;;;4.72;100.00;103012.56;5093983;28;20032;-52
2022/01/30 07:42:51;;;;;;;24.63;4.88;;;;;;;4.81;100.00;103004.97;5075493;28;20032;-51
2022/01/30 07:45:17;;;;;;;24.35;4.28;;;;;;;4.65;100.00;102962.78;5092518;28;20471;-50
2022/01/30 07:47:42;;;;;;;28.60;5.30;;;;;;;4.91;100.00;102999.13;5093314;28;20036;-53
2022/01/30 07:50:08;;;;;;;29.70;5.53;;;;;;;4.95;100.00;103008.81;5093596;28;20055;-50
2022/01/30 07:52:34;;;;;;;24.75;5.47;;;;;;;4.81;100.00;102976.28;5093658;28;20032;-51
2022/01/30 07:54:59;;;;;;;24.23;5.40;;;;;;;4.60;100.00;102931.38;5093706;28;20372;-53
2022/01/30 07:57:24;;;;;;;21.42;4.60;;;;;;;5.08;100.00;103007.38;5093442;28;20028;-51
2022/01/30 07:59:50;;;;;;;28.45;5.22;;;;;;;4.94;100.00;102970.50;5093127;28;20036;-51
2022/01/30 08:02:15;;;;;;;28.48;5.45;;;;;;;5.21;100.00;102999.00;5092304;28;20115;-51
2022/01/30 08:04:41;;;;;;;29.75;5.45;;;;;;;4.95;100.00;102943.56;5092075;28;20039;-49
2022/01/30 08:07:06;;;;;;;22.00;4.57;;;;;;;5.40;100.00;103013.38;5093545;28;20040;-50
2022/01/30 08:09:32;;;;;;;31.20;5.75;;;;;;;5.05;100.00;102944.66;5092995;28;20127;-52
2022/01/30 08:11:57;;;;;;;28.85;5.25;;;;;;;5.47;100.00;103017.88;5093276;28;20051;-51
2022/01/30 08:14:22;;;;;;;27.55;5.70;;;;;;;5.57;100.00;103012.03;5093126;28;20032;-51
2022/01/30 08:16:48;;;;;;;31.90;6.18;;;;;;;5.53;100.00;103007.59;5091757;28;20036;-50
2022/01/30 08:19:13;;;;;;;26.55;5.70;;;;;;;5.69;100.00;103020.16;5093481;28;20032;-51
2022/01/30 08:21:39;;;;;;;28.83;5.00;;;;;;;5.74;100.00;103012.41;5091911;28;20040;-51
2022/01/30 08:24:05;;;;;;;28.98;6.03;;;;;;;5.73;100.00;103014.13;5091682;28;20069;-49
2022/01/30 08:26:30;;;;;;;28.33;5.25;;;;;;;5.84;100.00;103030.06;5093015;28;20036;-50
2022/01/30 08:28:55;;;;;;;29.60;5.70;;;;;;;5.90;100.00;103030.19;5092865;28;20028;-52
2022/01/30 08:31:21;;;;;;;32.53;5.20;;;;;;;5.96;100.00;103032.94;5092690;28;20028;-54
2022/01/30 08:33:46;;;;;;;25.38;5.38;;;;;;;5.99;100.00;103026.06;5091606;28;20055;-50
2022/01/30 08:36:11;;;;;;;35.65;6.65;;;;;;;5.90;100.00;103009.28;5092655;28;20062;-53
2022/01/30 08:38:37;;;;;;;25.05;4.97;;;;;;;6.05;100.00;103041.00;5092753;28;20167;-53
2022/01/30 08:41:02;;;;;;;28.15;5.97;;;;;;;5.90;100.00;103015.41;5092627;28;20109;-51
2022/01/30 08:43:29;;;;;;;30.77;6.03;;;;;;;5.98;100.00;103012.97;5092553;28;20036;-55
2022/01/30 08:45:55;;;;;;;31.42;5.95;;;;;;;6.17;100.00;103039.53;5091219;28;20042;-52
2022/01/30 08:48:20;;;;;;;25.08;5.35;;;;;;;6.17;100.00;103038.63;5093030;28;20032;-50
2022/01/30 08:50:46;;;;;;;26.13;4.80;;;;;;;6.19;100.00;103035.19;5092892;28;20032;-54
2022/01/30 08:53:11;;;;;;;26.70;4.95;;;;;;;6.14;100.00;103029.00;5092467;28;20040;-50
2022/01/30 08:55:37;;;;;;;28.27;5.85;;;;;;;5.77;100.00;102973.28;5090950;28;20051;-53
2022/01/30 08:58:09;;;;;;;26.92;5.82;;;;;;;6.12;100.00;103032.44;5092389;28;20075;-54
2022/01/30 09:00:40;;;;;;;26.65;4.68;;;;;;;5.82;100.00;102969.03;5092100;28;20059;-50
2022/01/30 09:03:06;;;;;;;23.73;5.60;;;;;;;6.14;100.00;103013.31;5092554;28;20028;-51
2022/01/30 09:05:32;;;;;;;28.23;5.72;;;;;;;5.82;100.00;102945.50;5090268;28;20040;-52
2022/01/30 09:07:59;;;;;;;27.63;5.13;;;;;;;6.38;100.00;103015.53;5092403;28;20368;-51
2022/01/30 09:10:24;;;;;;;25.05;6.10;;;;;;;6.73;100.00;103058.06;5079208;28;20076;-52
2022/01/30 09:12:50;;;;;;;30.40;5.88;;;;;;;6.25;100.00;102966.44;5091764;28;20394;-52
2022/01/30 09:15:16;;;;;;;27.10;5.53;;;;;;;6.68;100.00;103062.34;5092101;28;20043;-51
2022/01/30 09:17:43;;;;;;;22.63;5.90;;;;;;;6.70;100.00;103058.00;5092271;28;20032;-54
2022/01/30 09:20:09;;;;;;;22.60;5.50;;;;;;;6.80;100.00;103084.38;5091177;28;20372;-52
2022/01/30 09:22:34;;;;;;;20.27;4.60;;;;;;;6.97;100.00;103096.91;5092156;28;20186;-54
2022/01/30 09:25:00;;;;;;;22.98;4.88;;;;;;;7.01;100.00;103088.22;5092185;28;20118;-50
2022/01/30 09:27:25;;;;;;;27.00;5.15;;;;;;;7.05;100.00;103087.44;5091918;28;20147;-52
2022/01/30 09:29:50;;;;;;;21.73;5.13;;;;;;;7.15;100.00;103092.84;5092720;28;20510;-55
2022/01/30 09:32:17;;;;;;;29.33;5.00;;;;;;;7.16;100.00;103089.38;5092162;28;20028;-55
2022/01/30 09:34:42;;;;;;;23.67;4.57;;;;;;;6.82;100.00;103033.78;5094281;28;20507;-50
2022/01/30 09:37:08;;;;;;;22.45;5.20;;;;;;;6.82;100.00;103016.34;5095065;28;20116;-51
2022/01/30 09:39:34;;;;;;;23.80;5.07;;;;;;;7.24;100.00;103092.13;5096322;28;20544;-51
2022/01/30 09:41:59;;;;;;;29.40;6.15;;;;;;;7.32;100.00;103086.19;5096139;28;20118;-53
2022/01/30 09:44:25;;;;;;;30.40;5.65;;;;;;;7.49;100.00;103091.69;5094714;28;20394;-52
2022/01/30 09:46:51;;;;;;;28.10;4.97;;;;;;;6.96;100.00;103013.97;5096121;28;20066;-53
2022/01/30 09:49:21;;;;;;;28.10;6.60;;;;;;;7.32;100.00;103094.06;5095817;28;20035;-49
2022/01/30 09:51:47;;;;;;;24.10;5.63;;;;;;;7.14;100.00;103080.63;5095200;28;20509;-52
2022/01/30 09:54:12;;;;;;;19.38;4.65;;;;;;;6.89;100.00;103054.00;5095992;28;20036;-51
2022/01/30 09:56:38;;;;;;;30.65;5.57;;;;;;;7.19;100.00;103092.06;5095778;28;20496;-48
2022/01/30 09:59:04;;;;;;;30.27;6.07;;;;;;;7.38;100.00;103085.41;5095627;28;20032;-50
2022/01/30 10:01:34;;;;;;;29.13;5.78;;;;;;;7.17;100.00;103028.31;5095948;28;20036;-52
2022/01/30 10:04:00;;;;;;;21.05;5.15;;;;;;;7.61;100.00;103093.63;5094634;28;20135;-53
2022/01/30 10:06:32;;;;;;;34.13;6.15;;;;;;;7.49;100.00;103080.31;5095779;28;20032;-50
2022/01/30 10:09:00;;;;;;;22.95;5.28;;;;;;;6.31;100.00;102902.91;5094436;28;20052;-49
2022/01/30 10:11:46;;;;;;;22.25;5.07;;;;;;;7.20;100.00;103101.69;5094024;28;20043;-49
2022/01/30 10:14:16;;;;;;;24.65;5.35;;;;;;;6.80;100.00;103055.56;5096133;28;20040;-48
2022/01/30 10:16:44;;;;;;;27.92;5.88;;;;;;;7.03;100.00;103082.19;5095574;28;20036;-51
2022/01/30 10:19:13;;;;;;;26.70;5.68;;;;;;;7.28;100.00;103079.13;5094559;28;20028;-51
2022/01/30 10:21:39;;;;;;;25.80;5.80;;;;;;;7.46;100.00;103077.66;5095408;28;20027;-52
2022/01/30 10:24:25;;;;;;;37.17;6.03;;;;;;;7.64;100.00;103112.03;5077112;28;20075;-50
2022/01/30 10:26:55;;;;;;;33.28;6.43;;;;;;;7.48;100.00;103113.50;5089756;28;20055;-52
2022/01/30 10:29:24;;;;;;;28.00;5.50;;;;;;;7.21;100.00;103071.13;5094410;28;20032;-52
2022/01/30 10:32:09;;;;;;;24.58;5.80;;;;;;;7.31;100.00;103109.72;5093894;28;20058;-51
2022/01/30 10:34:36;;;;;;;30.85;5.47;;;;;;;6.79;100.00;103048.59;5094931;28;20480;-50
2022/01/30 10:37:22;;;;;;;33.22;6.35;;;;;;;7.06;100.00;103118.91;5095227;28;20482;-52
2022/01/30 10:40:08;;;;;;;26.05;5.85;;;;;;;7.18;100.00;103110.38;5094024;28;20055;-48
2022/01/30 10:42:38;;;;;;;27.40;5.95;;;;;;;7.09;100.00;103037.75;5093760;28;20387;-52
2022/01/30 10:45:12;;;;;;;33.35;7.15;;;;;;;7.53;100.00;103069.03;5094165;28;20077;-48
2022/01/30 10:47:38;;;;;;;29.52;5.40;;;;;;;7.82;100.00;103125.41;5094521;28;20387;-52
2022/01/30 10:50:18;;;;;;;27.10;6.28;;;;;;;7.78;100.00;103121.88;5093732;28;20024;-52
2022/01/30 10:53:01;;;;;;;27.08;5.63;;;;;;;7.74;100.00;103117.41;5094702;28;20140;-50
2022/01/30 10:55:41;;;;;;;30.15;5.55;;;;;;;7.34;100.00;103058.25;5094350;28;20165;-51
2022/01/30 10:58:09;;;;;;;25.73;4.93;;;;;;;7.61;100.00;103094.50;5094920;28;20038;-50
2022/01/30 11:00:43;;;;;;;25.38;4.95;;;;;;;7.72;100.00;103123.50;5093510;28;20475;-55
2022/01/30 11:03:10;;;;;;;30.85;6.38;;;;;;;7.64;100.00;103119.88;5094950;28;20039;-51
2022/01/30 11:05:53;;;;;;;27.15;5.78;;;;;;;7.10;100.00;103042.13;5092900;28;20028;-52
2022/01/30 11:08:22;;;;;;;28.52;5.75;;;;;;;7.69;100.00;103133.94;5094426;28;20495;-54
2022/01/30 11:10:58;;;;;;;28.55;5.78;;;;;;;7.91;100.00;103136.91;5094510;28;20062;-50
2022/01/30 11:13:32;;;;;;;33.95;6.28;;;;;;;7.98;100.00;103131.75;5093181;28;20441;-52
2022/01/30 11:16:55;;;;;;;33.45;6.65;;;;;;;7.93;100.00;103131.69;5077282;28;20062;-51
2022/01/30 11:18:48;;;;;;;30.13;5.97;;;;;;;7.94;100.00;103120.34;5094146;28;20142;-51
2022/01/30 11:21:16;;;;;;;30.33;6.45;;;;;;;7.96;100.00;103129.13;5094263;28;20047;-52
2022/01/30 11:23:42;;;;;;;28.10;5.90;;;;;;;8.01;100.00;103134.41;5092986;28;20024;-54
2022/01/30 11:26:08;;;;;;;28.92;6.82;;;;;;;8.04;100.00;103113.47;5092728;28;20070;-50
2022/01/30 11:28:35;;;;;;;26.05;5.85;;;;;;;8.00;100.00;103082.84;5093914;28;20028;-51
2022/01/30 11:31:01;;;;;;;30.15;5.45;;;;;;;7.90;100.00;103046.00;5092458;28;20024;-52
2022/01/30 11:33:27;;;;;;;31.65;5.68;;;;;;;8.37;100.00;103117.50;5094345;28;20046;-50
2022/01/30 11:35:53;;;;;;;35.55;6.93;;;;;;;8.20;100.00;103111.09;5075691;28;20028;-50
2022/01/30 11:38:18;;;;;;;34.10;7.47;;;;;;;8.41;100.00;103137.66;5092899;28;20067;-52
2022/01/30 11:41:12;;;;;;;32.13;7.00;;;;;;;8.39;100.00;103121.00;5093855;28;20032;-52
2022/01/30 11:43:38;;;;;;;27.42;6.00;;;;;;;7.91;100.00;103067.84;5092535;28;20381;-51
2022/01/30 11:46:14;;;;;;;29.67;6.07;;;;;;;7.87;100.00;103115.88;5093819;28;20020;-52
2022/01/30 11:48:40;;;;;;;32.67;5.85;;;;;;;7.86;100.00;103130.72;5093660;28;20139;-53
2022/01/30 11:51:06;;;;;;;21.42;5.20;;;;;;;7.45;100.00;103086.38;5093745;28;20071;-51
2022/01/30 11:53:31;;;;;;;26.35;6.30;;;;;;;7.50;100.00;103111.78;5093460;28;20535;-52
2022/01/30 11:55:59;;;;;;;30.10;6.07;;;;;;;7.45;100.00;103105.59;5093375;28;20104;-51
2022/01/30 11:58:30;;;;;;;30.95;6.10;;;;;;;7.38;100.00;103114.22;5093161;28;20067;-51